createdAt,value
2023-02-13T00:01:53.590Z,7.02
2023-02-13T00:04:20.283Z,6.96
2023-02-13T00:06:46.999Z,7.07
2023-02-13T00:09:14.287Z,6.65
2023-02-13T00:11:40.867Z,7.06
2023-02-13T00:14:07.470Z,7.27
2023-02-13T00:16:34.408Z,6.66
2023-02-13T00:19:00.923Z,7.16
2023-02-13T00:21:27.498Z,6.61
2023-02-13T00:23:54.007Z,6.31
2023-02-13T00:26:20.576Z,6.81
2023-02-13T00:28:47.490Z,6.41
2023-02-13T00:31:21.615Z,6.76
2023-02-13T00:33:48.396Z,6.52
2023-02-13T00:36:18.421Z,6.59
2023-02-13T00:38:45.219Z,6.62
2023-02-13T00:41:12.609Z,6.58
2023-02-13T00:43:39.513Z,6.37
2023-02-13T00:46:06.452Z,6.61
2023-02-13T00:48:34.631Z,6.47
2023-02-13T00:51:01.956Z,6.66
2023-02-13T00:53:28.871Z,6.83
2023-02-13T00:55:55.488Z,6.38
2023-02-13T00:58:22.726Z,6.97
2023-02-13T01:00:49.724Z,6.63
2023-02-13T01:03:17.403Z,6.11
2023-02-13T01:05:44.763Z,6.50
2023-02-13T01:08:12.816Z,6.31
2023-02-13T01:10:40.811Z,6.48
2023-02-13T01:13:07.658Z,6.17
2023-02-13T01:15:34.777Z,6.69
2023-02-13T01:18:01.473Z,6.18
2023-02-13T01:20:29.356Z,6.70
2023-02-13T01:22:57.469Z,6.51
2023-02-13T01:25:24.304Z,6.43
2023-02-13T01:27:51.442Z,6.70
2023-02-13T01:30:19.189Z,6.78
2023-02-13T01:32:47.095Z,6.74
2023-02-13T01:35:15.661Z,6.74
2023-02-13T01:37:43.058Z,6.63
2023-02-13T01:40:13.574Z,6.84
2023-02-13T01:42:40.395Z,6.97
2023-02-13T01:45:07.076Z,7.10
2023-02-13T01:47:45.295Z,6.84
2023-02-13T01:50:18.808Z,6.96
2023-02-13T01:52:51.712Z,6.84
2023-02-13T01:55:19.168Z,6.77
2023-02-13T01:57:53.850Z,6.80
2023-02-13T02:00:20.918Z,6.79
2023-02-13T02:02:53.209Z,6.41
2023-02-13T02:05:23.052Z,6.59
2023-02-13T02:07:53.107Z,6.64
2023-02-13T02:10:21.069Z,6.52
2023-02-13T02:13:12.366Z,6.50
2023-02-13T02:15:39.397Z,6.65
2023-02-13T02:18:21.711Z,6.88
2023-02-13T02:21:10.319Z,6.74
2023-02-13T02:23:58.412Z,6.99
2023-02-13T02:26:46.261Z,6.97
2023-02-13T02:29:48.392Z,6.74
2023-02-13T02:32:34.897Z,6.57
2023-02-13T02:35:13.223Z,6.70
2023-02-13T02:37:58.292Z,6.88
2023-02-13T02:40:38.434Z,6.84
2023-02-13T02:43:31.935Z,6.64
2023-02-13T02:46:17.939Z,6.21
2023-02-13T02:48:58.101Z,6.46
2023-02-13T02:51:45.187Z,6.39
2023-02-13T02:54:35.077Z,6.50
2023-02-13T02:57:23.269Z,6.46
2023-02-13T02:59:53.083Z,6.22
2023-02-13T03:02:21.179Z,6.37
2023-02-13T03:04:53.075Z,6.40
2023-02-13T03:07:22.633Z,6.27
2023-02-13T03:09:58.186Z,6.03
2023-02-13T03:12:32.070Z,5.82
2023-02-13T03:14:58.606Z,5.79
2023-02-13T03:17:27.275Z,5.66
2023-02-13T03:20:14.347Z,5.55
2023-02-13T03:23:10.856Z,5.66
2023-02-13T03:26:05.449Z,5.50
2023-02-13T03:28:57.590Z,5.49
2023-02-13T03:31:54.974Z,5.28
2023-02-13T03:34:25.423Z,4.81
2023-02-13T03:37:23.195Z,5.16
2023-02-13T03:40:00.748Z,4.73
2023-02-13T03:42:48.909Z,4.75
2023-02-13T03:45:22.404Z,4.97
2023-02-13T03:47:55.248Z,4.90
2023-02-13T03:50:24.175Z,4.90
2023-02-13T03:53:12.442Z,4.97
2023-02-13T03:55:50.588Z,4.88
2023-02-13T03:58:39.034Z,4.95
2023-02-13T04:01:09.631Z,4.78
2023-02-13T04:03:45.002Z,4.67
2023-02-13T04:06:17.017Z,4.68
2023-02-13T04:08:43.618Z,4.57
2023-02-13T04:11:16.034Z,4.52
2023-02-13T04:13:57.482Z,4.57
2023-02-13T04:16:54.868Z,4.58
2023-02-13T04:19:22.688Z,4.56
2023-02-13T04:21:54.682Z,4.42
2023-02-13T04:24:21.583Z,4.41
2023-02-13T04:26:48.155Z,4.32
2023-02-13T04:29:14.814Z,4.33
2023-02-13T04:31:41.499Z,4.28
2023-02-13T04:34:10.768Z,4.25
2023-02-13T04:36:37.278Z,4.15
2023-02-13T04:39:04.075Z,3.88
2023-02-13T04:41:30.522Z,3.88
2023-02-13T04:43:57.143Z,3.74
2023-02-13T04:46:26.389Z,3.79
2023-02-13T04:48:54.231Z,3.87
2023-02-13T04:51:23.134Z,3.79
2023-02-13T04:53:49.908Z,3.87
2023-02-13T04:56:17.594Z,3.41
2023-02-13T04:58:45.027Z,3.51
2023-02-13T05:01:13.893Z,3.48
2023-02-13T05:03:40.502Z,3.61
2023-02-13T05:06:07.183Z,3.31
2023-02-13T05:08:34.127Z,3.70
2023-02-13T05:11:00.739Z,3.70
2023-02-13T05:13:27.244Z,3.68
2023-02-13T05:15:58.957Z,3.50
2023-02-13T05:18:28.126Z,3.61
2023-02-13T05:20:54.699Z,3.66
2023-02-13T05:23:22.499Z,3.67
2023-02-13T05:25:50.188Z,3.36
2023-02-13T05:28:17.137Z,3.67
2023-02-13T05:30:43.610Z,3.26
2023-02-13T05:33:10.162Z,3.69
2023-02-13T05:35:40.086Z,3.62
2023-02-13T05:38:06.615Z,3.57
2023-02-13T05:40:33.086Z,3.40
2023-02-13T05:42:59.621Z,3.58
2023-02-13T05:45:27.588Z,3.45
2023-02-13T05:47:54.112Z,3.38
2023-02-13T05:50:22.187Z,3.41
2023-02-13T05:52:48.819Z,3.37
2023-02-13T05:55:15.768Z,3.32
2023-02-13T05:57:42.274Z,3.33
2023-02-13T06:00:09.316Z,3.01
2023-02-13T06:02:35.997Z,3.35
2023-02-13T06:05:02.482Z,3.36
2023-02-13T06:07:28.958Z,3.20
2023-02-13T06:09:55.406Z,3.16
2023-02-13T06:12:21.932Z,3.18
2023-02-13T06:14:48.763Z,2.94
2023-02-13T06:17:15.312Z,3.16
2023-02-13T06:19:41.810Z,3.07
2023-02-13T06:22:08.323Z,3.05
2023-02-13T06:24:34.783Z,2.99
2023-02-13T06:27:01.219Z,3.03
2023-02-13T06:29:27.726Z,3.00
2023-02-13T06:31:54.207Z,2.92
2023-02-13T06:34:21.529Z,3.04
2023-02-13T06:36:48.184Z,2.98
2023-02-13T06:39:14.722Z,2.79
2023-02-13T06:41:41.256Z,2.89
2023-02-13T06:44:07.785Z,2.44
2023-02-13T06:46:35.716Z,2.77
2023-02-13T06:49:02.500Z,2.63
2023-02-13T06:51:29.044Z,2.84
2023-02-13T06:53:55.704Z,2.91
2023-02-13T06:56:22.187Z,2.75
2023-02-13T06:58:48.714Z,2.69
2023-02-13T07:01:15.327Z,2.78
2023-02-13T07:03:41.875Z,2.34
2023-02-13T07:06:08.365Z,2.56
2023-02-13T07:08:34.884Z,2.20
2023-02-13T07:11:01.407Z,2.59
2023-02-13T07:13:27.945Z,2.63
2023-02-13T07:15:54.516Z,2.17
2023-02-13T07:18:21.096Z,2.49
2023-02-13T07:20:47.872Z,2.45
2023-02-13T07:23:14.375Z,2.34
2023-02-13T07:25:40.936Z,2.39
2023-02-13T07:28:07.670Z,2.40
2023-02-13T07:30:35.017Z,2.27
2023-02-13T07:33:03.690Z,1.73
2023-02-13T07:35:30.750Z,1.77
2023-02-13T07:37:57.222Z,1.98
2023-02-13T07:40:23.819Z,1.93
2023-02-13T07:42:50.553Z,1.97
2023-02-13T07:45:17.296Z,2.08
2023-02-13T07:47:43.841Z,2.05
2023-02-13T07:50:11.449Z,2.11
2023-02-13T07:52:38.649Z,2.14
2023-02-13T07:55:06.131Z,1.76
2023-02-13T07:57:33.489Z,2.03
2023-02-13T08:00:00.063Z,2.17
2023-02-13T08:02:26.539Z,1.65
2023-02-13T08:04:52.968Z,1.88
2023-02-13T08:07:19.821Z,1.77
2023-02-13T08:09:46.405Z,1.84
2023-02-13T08:12:12.975Z,1.46
2023-02-13T08:14:39.480Z,1.98
2023-02-13T08:17:05.951Z,2.30
2023-02-13T08:19:32.502Z,2.00
2023-02-13T08:21:59.044Z,2.26
2023-02-13T08:24:25.640Z,2.40
2023-02-13T08:26:52.290Z,2.21
2023-02-13T08:29:18.817Z,2.74
2023-02-13T08:31:45.471Z,2.87
2023-02-13T08:34:12.297Z,2.85
2023-02-13T08:36:38.846Z,2.38
2023-02-13T08:39:05.664Z,2.48
2023-02-13T08:41:32.203Z,2.25
2023-02-13T08:43:58.665Z,2.48
2023-02-13T08:46:25.276Z,2.92
2023-02-13T08:48:52.032Z,2.89
2023-02-13T08:51:18.653Z,2.28
2023-02-13T08:53:45.184Z,2.69
2023-02-13T08:56:11.831Z,3.29
2023-02-13T08:58:39.515Z,2.95
2023-02-13T09:01:09.625Z,2.58
2023-02-13T09:03:36.494Z,2.93
2023-02-13T09:06:03.464Z,3.01
2023-02-13T09:08:30.745Z,3.13
2023-02-13T09:11:00.652Z,3.33
2023-02-13T09:13:31.505Z,3.07
2023-02-13T09:16:00.180Z,3.22
2023-02-13T09:18:27.603Z,3.26
2023-02-13T09:21:01.424Z,3.14
2023-02-13T09:23:40.697Z,3.17
2023-02-13T09:26:10.087Z,3.42
2023-02-13T09:28:37.576Z,3.52
2023-02-13T09:31:07.237Z,3.52
2023-02-13T09:33:34.001Z,3.41
2023-02-13T09:36:08.579Z,3.95
2023-02-13T09:38:35.427Z,5.06
2023-02-13T09:41:11.100Z,6.08
2023-02-13T09:43:45.401Z,6.28
2023-02-13T09:46:27.562Z,7.01
2023-02-13T09:48:59.561Z,6.79
2023-02-13T09:51:27.452Z,6.95
2023-02-13T09:54:01.775Z,7.81
2023-02-13T09:56:56.420Z,8.35
2023-02-13T09:59:59.016Z,7.65
2023-02-13T10:02:53.602Z,8.68
2023-02-13T10:05:51.199Z,7.94
2023-02-13T10:08:45.017Z,7.08
2023-02-13T10:11:29.864Z,7.60
2023-02-13T10:14:09.529Z,8.01
2023-02-13T10:16:58.751Z,8.12
2023-02-13T10:19:25.302Z,7.62
2023-02-13T10:21:59.467Z,8.29
2023-02-13T10:24:35.921Z,8.93
2023-02-13T10:27:12.383Z,8.59
2023-02-13T10:29:45.639Z,8.64
2023-02-13T10:32:19.262Z,8.05
2023-02-13T10:34:47.056Z,8.96
2023-02-13T10:37:17.509Z,10.23
2023-02-13T10:39:48.345Z,9.76
2023-02-13T10:42:46.824Z,8.69
2023-02-13T10:45:33.000Z,9.14
2023-02-13T10:48:27.677Z,9.61
2023-02-13T10:51:12.633Z,9.49
2023-02-13T10:53:42.145Z,8.44
2023-02-13T10:56:25.711Z,7.75
2023-02-13T10:59:04.977Z,10.09
2023-02-13T11:02:16.245Z,10.01
2023-02-13T11:04:44.418Z,9.41
2023-02-13T11:07:19.532Z,9.44
2023-02-13T11:09:49.235Z,9.08
2023-02-13T11:12:29.300Z,8.65
2023-02-13T11:15:00.070Z,9.35
2023-02-13T11:17:32.793Z,9.90
2023-02-13T11:20:03.809Z,10.65
2023-02-13T11:22:37.896Z,10.27
2023-02-13T11:25:20.751Z,11.77
2023-02-13T11:27:49.485Z,10.67
2023-02-13T11:30:39.289Z,10.61
2023-02-13T11:33:21.024Z,10.81
2023-02-13T11:35:48.297Z,10.43
2023-02-13T11:38:17.500Z,9.95
2023-02-13T11:40:51.581Z,9.89
2023-02-13T11:43:29.964Z,9.07
2023-02-13T11:46:07.382Z,10.56
2023-02-13T11:48:35.121Z,9.86
2023-02-13T11:51:02.493Z,11.20
2023-02-13T11:53:38.228Z,10.28
2023-02-13T11:56:07.751Z,9.96
2023-02-13T11:58:35.555Z,10.68
2023-02-13T12:01:11.568Z,10.11
2023-02-13T12:03:38.160Z,10.28
2023-02-13T12:06:17.007Z,9.79
2023-02-13T12:08:47.365Z,10.59
2023-02-13T12:11:51.057Z,9.90
2023-02-13T12:14:27.119Z,10.31
2023-02-13T12:17:03.851Z,10.63
2023-02-13T12:19:39.971Z,10.51
2023-02-13T12:22:30.550Z,10.35
2023-02-13T12:25:19.118Z,11.78
2023-02-13T12:28:04.186Z,11.68
2023-02-13T12:30:42.011Z,11.32
2023-02-13T12:33:32.918Z,11.50
2023-02-13T12:36:35.685Z,11.71
2023-02-13T12:39:34.134Z,12.60
2023-02-13T12:42:21.963Z,13.05
2023-02-13T12:45:00.784Z,12.42
2023-02-13T12:47:36.140Z,12.86
2023-02-13T12:50:17.615Z,12.09
2023-02-13T12:53:21.317Z,12.45
2023-02-13T12:56:19.420Z,13.62
2023-02-13T12:59:04.993Z,13.15
2023-02-13T13:01:46.442Z,12.33
2023-02-13T13:04:33.627Z,13.06
2023-02-13T13:07:28.001Z,13.46
2023-02-13T13:10:36.694Z,13.46
2023-02-13T13:13:34.566Z,12.92
2023-02-13T13:16:03.972Z,12.37
2023-02-13T13:18:40.096Z,12.58
2023-02-13T13:21:06.686Z,12.89
2023-02-13T13:23:45.165Z,12.09
2023-02-13T13:26:33.344Z,12.52
2023-02-13T13:29:01.845Z,12.77
2023-02-13T13:31:28.969Z,14.39
2023-02-13T13:34:01.774Z,14.38
2023-02-13T13:36:52.832Z,13.46
2023-02-13T13:39:41.186Z,13.94
2023-02-13T13:42:14.198Z,14.64
2023-02-13T13:45:03.656Z,13.10
2023-02-13T13:47:58.454Z,13.37
2023-02-13T13:50:28.386Z,13.58
2023-02-13T13:53:13.630Z,13.57
2023-02-13T13:55:53.201Z,13.91
2023-02-13T13:58:32.523Z,15.51
2023-02-13T14:01:14.450Z,13.36
2023-02-13T14:03:43.134Z,13.36
2023-02-13T14:06:15.793Z,13.83
2023-02-13T14:08:42.215Z,13.14
2023-02-13T14:11:30.613Z,13.10
2023-02-13T14:13:57.522Z,13.15
2023-02-13T14:16:42.172Z,13.68
2023-02-13T14:19:38.402Z,13.01
2023-02-13T14:22:27.986Z,13.45
2023-02-13T14:24:59.102Z,12.70
2023-02-13T14:27:29.969Z,12.91
2023-02-13T14:29:57.771Z,13.21
2023-02-13T14:32:39.930Z,13.83
2023-02-13T14:35:20.774Z,14.10
2023-02-13T14:37:52.019Z,13.31
2023-02-13T14:40:18.558Z,12.87
2023-02-13T14:42:49.806Z,12.71
2023-02-13T14:45:21.075Z,13.60
2023-02-13T14:47:51.905Z,14.23
2023-02-13T14:50:32.483Z,12.99
2023-02-13T14:53:02.938Z,13.28
2023-02-13T14:55:29.424Z,13.94
2023-02-13T14:58:07.626Z,12.87
2023-02-13T15:00:45.898Z,13.36
2023-02-13T15:03:36.841Z,12.86
2023-02-13T15:06:12.602Z,12.46
2023-02-13T15:08:48.146Z,12.18
2023-02-13T15:11:42.124Z,12.36
2023-02-13T15:14:31.848Z,12.73
2023-02-13T15:17:13.355Z,12.50
2023-02-13T15:19:45.553Z,12.26
2023-02-13T15:22:33.184Z,11.94
2023-02-13T15:25:02.544Z,12.14
2023-02-13T15:27:37.953Z,12.17
2023-02-13T15:30:16.528Z,12.60
2023-02-13T15:32:43.058Z,12.70
2023-02-13T15:35:29.726Z,13.01
2023-02-13T15:37:56.933Z,12.34
2023-02-13T15:40:27.265Z,12.57
2023-02-13T15:42:55.167Z,12.51
2023-02-13T15:45:23.449Z,12.48
2023-02-13T15:47:51.930Z,12.08
2023-02-13T15:50:35.234Z,11.58
2023-02-13T15:53:05.532Z,12.17
2023-02-13T15:55:34.015Z,12.22
2023-02-13T15:58:01.735Z,12.09
2023-02-13T16:00:32.067Z,11.99
2023-02-13T16:03:01.885Z,12.07
2023-02-13T16:05:40.116Z,12.05
2023-02-13T16:08:29.562Z,11.74
2023-02-13T16:11:31.851Z,11.79
2023-02-13T16:13:58.530Z,12.03
2023-02-13T16:16:26.045Z,12.01
2023-02-13T16:18:53.368Z,11.69
2023-02-13T16:21:26.371Z,11.50
2023-02-13T16:24:00.125Z,10.88
2023-02-13T16:26:27.090Z,10.89
2023-02-13T16:28:53.779Z,11.01
2023-02-13T16:31:22.385Z,11.02
2023-02-13T16:33:49.351Z,10.89
2023-02-13T16:36:15.817Z,10.79
2023-02-13T16:38:47.709Z,10.44
2023-02-13T16:41:23.367Z,10.66
2023-02-13T16:43:51.829Z,10.51
2023-02-13T16:46:41.188Z,10.54
2023-02-13T16:49:10.736Z,10.29
2023-02-13T16:51:50.472Z,10.13
2023-02-13T16:54:19.966Z,9.89
2023-02-13T16:57:00.807Z,9.91
2023-02-13T16:59:53.753Z,9.78
2023-02-13T17:02:39.535Z,9.50
2023-02-13T17:05:08.973Z,9.61
2023-02-13T17:07:40.865Z,9.63
2023-02-13T17:10:28.008Z,9.25
2023-02-13T17:12:57.049Z,9.54
2023-02-13T17:15:28.286Z,9.29
2023-02-13T17:17:54.891Z,9.36
2023-02-13T17:20:24.506Z,9.46
2023-02-13T17:22:54.610Z,9.26
2023-02-13T17:25:32.506Z,9.53
2023-02-13T17:28:01.908Z,9.33
2023-02-13T17:30:31.870Z,8.84
2023-02-13T17:33:04.626Z,9.00
2023-02-13T17:35:32.373Z,8.94
2023-02-13T17:38:00.332Z,8.89
2023-02-13T17:40:28.621Z,8.96
2023-02-13T17:42:57.031Z,8.42
2023-02-13T17:45:26.483Z,8.48
2023-02-13T17:47:53.656Z,8.08
2023-02-13T17:50:24.588Z,8.05
2023-02-13T17:52:51.504Z,7.61
2023-02-13T17:55:29.192Z,7.68
2023-02-13T17:57:57.385Z,7.76
2023-02-13T18:00:26.611Z,7.80
2023-02-13T18:02:53.437Z,7.71
2023-02-13T18:05:21.714Z,7.54
2023-02-13T18:07:48.641Z,7.52
2023-02-13T18:10:17.996Z,7.63
2023-02-13T18:12:45.740Z,7.27
2023-02-13T18:15:13.576Z,7.60
2023-02-13T18:17:40.348Z,7.65
2023-02-13T18:20:08.586Z,7.38
2023-02-13T18:22:35.244Z,6.99
2023-02-13T18:25:01.817Z,7.28
2023-02-13T18:27:28.841Z,7.03
2023-02-13T18:29:56.304Z,6.56
2023-02-13T18:32:23.416Z,7.15
2023-02-13T18:34:50.404Z,7.35
2023-02-13T18:37:18.125Z,7.40
2023-02-13T18:39:44.604Z,7.26
2023-02-13T18:42:11.515Z,7.05
2023-02-13T18:44:37.963Z,7.08
2023-02-13T18:47:04.495Z,6.54
2023-02-13T18:49:31.116Z,6.98
2023-02-13T18:51:57.854Z,6.81
2023-02-13T18:54:24.527Z,6.83
2023-02-13T18:56:52.271Z,6.87
2023-02-13T18:59:21.137Z,6.90
2023-02-13T19:01:47.584Z,6.98
2023-02-13T19:04:14.530Z,6.74
2023-02-13T19:06:43.437Z,6.70
2023-02-13T19:09:10.554Z,7.04
2023-02-13T19:11:37.336Z,7.03
2023-02-13T19:14:04.884Z,6.75
2023-02-13T19:16:33.092Z,6.73
2023-02-13T19:19:02.256Z,7.03
2023-02-13T19:21:30.638Z,6.79
2023-02-13T19:23:57.555Z,6.60
2023-02-13T19:26:26.979Z,6.79
2023-02-13T19:28:54.050Z,6.37
2023-02-13T19:31:27.097Z,6.67
2023-02-13T19:33:54.462Z,6.59
2023-02-13T19:36:24.184Z,6.51
2023-02-13T19:38:58.792Z,6.65
2023-02-13T19:41:25.618Z,6.53
2023-02-13T19:43:52.612Z,6.47
2023-02-13T19:46:28.470Z,6.38
2023-02-13T19:48:55.871Z,6.27
2023-02-13T19:51:25.165Z,6.39
2023-02-13T19:54:18.032Z,6.08
2023-02-13T19:56:44.542Z,6.02
2023-02-13T19:59:11.831Z,6.07
2023-02-13T20:01:38.420Z,6.11
2023-02-13T20:04:05.034Z,6.11
2023-02-13T20:06:34.576Z,5.79
2023-02-13T20:09:04.183Z,5.69
2023-02-13T20:11:30.798Z,5.56
2023-02-13T20:13:59.022Z,5.82
2023-02-13T20:16:25.605Z,5.60
2023-02-13T20:18:52.352Z,5.52
2023-02-13T20:21:19.602Z,5.70
2023-02-13T20:23:51.198Z,5.74
2023-02-13T20:26:18.375Z,6.00
2023-02-13T20:28:46.500Z,5.92
2023-02-13T20:31:19.466Z,5.77
2023-02-13T20:33:47.390Z,5.69
2023-02-13T20:36:15.052Z,5.62
2023-02-13T20:38:42.662Z,5.82
2023-02-13T20:41:10.382Z,5.40
2023-02-13T20:43:37.160Z,5.27
2023-02-13T20:46:03.928Z,5.32
2023-02-13T20:48:30.467Z,5.27
2023-02-13T20:51:01.472Z,5.34
2023-02-13T20:53:29.987Z,5.20
2023-02-13T20:56:26.349Z,5.25
2023-02-13T20:58:55.436Z,4.83
2023-02-13T21:01:28.606Z,4.83
2023-02-13T21:03:56.099Z,4.98
2023-02-13T21:06:31.271Z,4.98
2023-02-13T21:08:57.770Z,4.96
2023-02-13T21:11:24.471Z,4.62
2023-02-13T21:13:51.603Z,4.60
2023-02-13T21:16:22.276Z,4.76
2023-02-13T21:18:51.486Z,4.61
2023-02-13T21:21:20.141Z,4.76
2023-02-13T21:23:47.217Z,4.74
2023-02-13T21:26:16.384Z,4.12
2023-02-13T21:28:45.342Z,4.40
2023-02-13T21:31:21.307Z,4.17
2023-02-13T21:33:47.908Z,4.25
2023-02-13T21:36:14.468Z,4.39
2023-02-13T21:38:41.515Z,4.50
2023-02-13T21:41:13.756Z,4.43
2023-02-13T21:43:41.158Z,4.25
2023-02-13T21:46:09.964Z,3.82
2023-02-13T21:48:37.720Z,3.95
2023-02-13T21:51:13.424Z,3.88
2023-02-13T21:53:40.992Z,3.97
2023-02-13T21:56:11.851Z,3.76
2023-02-13T21:58:40.078Z,3.60
2023-02-13T22:01:20.377Z,3.94
2023-02-13T22:03:52.087Z,3.53
2023-02-13T22:06:20.312Z,3.82
2023-02-13T22:08:47.275Z,3.79
2023-02-13T22:11:14.434Z,3.79
2023-02-13T22:13:40.826Z,3.44
2023-02-13T22:16:07.325Z,3.98
2023-02-13T22:18:38.660Z,3.55
2023-02-13T22:21:05.897Z,3.86
2023-02-13T22:23:36.457Z,3.55
2023-02-13T22:26:04.102Z,3.56
2023-02-13T22:28:31.082Z,3.38
2023-02-13T22:30:58.012Z,3.32
2023-02-13T22:33:24.948Z,3.44
2023-02-13T22:35:52.090Z,3.37
2023-02-13T22:38:19.870Z,3.31
2023-02-13T22:40:46.483Z,3.11
2023-02-13T22:43:13.104Z,3.38
2023-02-13T22:45:39.782Z,3.30
2023-02-13T22:48:06.915Z,3.17
2023-02-13T22:50:34.200Z,3.31
2023-02-13T22:53:00.808Z,3.56
2023-02-13T22:55:27.447Z,3.50
2023-02-13T22:57:54.177Z,3.42
2023-02-13T23:00:22.320Z,3.46
2023-02-13T23:02:50.074Z,3.16
2023-02-13T23:05:17.825Z,3.44
2023-02-13T23:07:44.644Z,3.52
2023-02-13T23:10:11.851Z,3.32
2023-02-13T23:12:38.419Z,3.34
2023-02-13T23:15:10.256Z,3.22
2023-02-13T23:17:37.452Z,3.11
2023-02-13T23:20:04.286Z,2.93
2023-02-13T23:22:30.731Z,2.95
2023-02-13T23:24:57.331Z,2.70
2023-02-13T23:27:23.722Z,2.66
2023-02-13T23:29:50.421Z,2.91
2023-02-13T23:32:16.959Z,2.87
2023-02-13T23:34:43.512Z,2.83
2023-02-13T23:37:10.095Z,2.78
2023-02-13T23:39:36.619Z,2.74
2023-02-13T23:42:03.157Z,2.50
2023-02-13T23:44:29.597Z,2.82
2023-02-13T23:46:56.071Z,2.78
2023-02-13T23:49:22.478Z,2.65
2023-02-13T23:51:49.010Z,2.43
2023-02-13T23:54:18.828Z,2.29
2023-02-13T23:56:45.663Z,2.33
2023-02-13T23:59:12.937Z,2.71
